createdAt,value
2022-08-18T00:04:35.452Z,26.88
2022-08-18T00:09:34.778Z,27.16
2022-08-18T00:14:32.399Z,27.28
2022-08-18T00:19:46.989Z,27.45
2022-08-18T00:24:47.766Z,27.47
2022-08-18T00:29:45.965Z,27.07
2022-08-18T00:34:43.647Z,27.49
2022-08-18T00:39:43.507Z,27.43
2022-08-18T00:44:45.156Z,27.42
2022-08-18T00:49:45.295Z,27.23
2022-08-18T00:54:46.546Z,27.38
2022-08-18T00:59:48.389Z,27.03
2022-08-18T01:04:53.085Z,27.23
2022-08-18T01:09:51.229Z,26.85
2022-08-18T01:14:48.372Z,26.99
2022-08-18T01:20:06.430Z,27.20
2022-08-18T01:25:26.217Z,27.13
2022-08-18T01:30:25.035Z,27.14
2022-08-18T01:35:26.261Z,26.95
2022-08-18T01:41:22.597Z,26.83
2022-08-18T01:45:42.272Z,27.08
2022-08-18T01:50:40.840Z,27.07
2022-08-18T01:55:43.877Z,27.06
2022-08-18T02:00:42.176Z,26.98
2022-08-18T02:05:43.850Z,26.73
2022-08-18T02:10:44.250Z,26.79
2022-08-18T02:15:42.028Z,26.73
2022-08-18T02:20:40.660Z,26.57
2022-08-18T02:25:41.086Z,26.64
2022-08-18T02:30:42.203Z,26.44
2022-08-18T02:35:43.442Z,26.46
2022-08-18T02:40:40.400Z,26.33
2022-08-18T02:45:38.888Z,26.38
2022-08-18T02:50:44.279Z,26.29
2022-08-18T02:55:41.077Z,26.28
2022-08-18T03:00:40.196Z,26.43
2022-08-18T03:05:38.583Z,26.52
2022-08-18T03:10:36.946Z,26.24
2022-08-18T03:15:33.794Z,25.89
2022-08-18T03:20:31.684Z,26.17
2022-08-18T03:25:28.706Z,25.95
2022-08-18T03:30:25.536Z,25.85
2022-08-18T03:35:22.655Z,26.09
2022-08-18T03:40:20.435Z,26.13
2022-08-18T03:45:18.204Z,26.10
2022-08-18T03:50:15.166Z,26.03
2022-08-18T03:55:12.128Z,26.23
2022-08-18T04:00:16.569Z,26.51
2022-08-18T04:05:14.032Z,26.64
2022-08-18T04:10:20.864Z,26.41
2022-08-18T04:21:09.846Z,26.90
2022-08-18T04:26:19.131Z,26.65
2022-08-18T04:31:22.997Z,27.32
2022-08-18T04:36:20.995Z,27.51
2022-08-18T04:41:54.518Z,27.58
2022-08-18T04:47:00.161Z,27.58
2022-08-18T04:52:40.548Z,27.61
2022-08-18T04:57:39.427Z,28.02
2022-08-18T05:02:43.517Z,28.32
2022-08-18T05:07:53.646Z,28.24
2022-08-18T05:12:54.136Z,28.60
2022-08-18T05:18:03.585Z,28.62
2022-08-18T05:24:05.575Z,28.71
2022-08-18T05:29:17.817Z,29.06
2022-08-18T05:34:20.021Z,31.31
2022-08-18T05:39:25.268Z,33.56
2022-08-18T05:44:27.194Z,35.71
2022-08-18T05:49:27.127Z,37.94
2022-08-18T05:54:56.926Z,39.81
2022-08-18T06:00:36.074Z,40.69
2022-08-18T06:05:56.940Z,41.79
2022-08-18T06:11:06.047Z,42.88
2022-08-18T12:02:30.968Z,37.27
2022-08-18T12:07:37.043Z,37.40
2022-08-18T12:12:39.099Z,37.24
2022-08-18T12:17:36.875Z,37.44
2022-08-18T12:22:35.337Z,37.49
2022-08-18T12:27:43.306Z,37.16
2022-08-18T12:32:49.738Z,37.03
2022-08-18T12:37:59.563Z,36.41
2022-08-18T12:43:10.546Z,36.31
2022-08-18T12:48:18.519Z,36.64
2022-08-18T12:53:58.037Z,36.64
2022-08-18T12:58:53.287Z,36.77
2022-08-18T13:04:12.232Z,37.08
2022-08-18T13:09:16.619Z,37.10
2022-08-18T13:15:00.977Z,37.45
2022-08-18T13:20:07.896Z,37.98
2022-08-18T13:25:08.319Z,38.04
2022-08-18T13:30:16.766Z,37.38
2022-08-18T13:35:29.972Z,36.78
2022-08-18T13:40:45.654Z,36.21
2022-08-18T13:45:46.448Z,35.68
2022-08-18T13:51:02.592Z,35.70
2022-08-18T13:56:00.329Z,35.31
2022-08-18T14:01:22.752Z,34.58
2022-08-18T14:06:46.883Z,33.82
2022-08-18T14:11:54.183Z,33.32
2022-08-18T14:16:51.398Z,33.68
2022-08-18T14:22:31.198Z,33.64
2022-08-18T14:27:57.533Z,33.38
2022-08-18T14:32:55.088Z,33.71
2022-08-18T14:37:58.028Z,33.43
2022-08-18T14:42:58.013Z,33.62
2022-08-18T14:47:57.748Z,32.98
2022-08-18T14:53:02.029Z,33.13
2022-08-18T14:58:35.679Z,33.56
2022-08-18T15:03:43.726Z,33.31
2022-08-18T15:08:45.384Z,33.20
2022-08-18T15:14:04.974Z,33.03
2022-08-18T15:19:03.286Z,33.04
2022-08-18T15:24:40.230Z,33.31
2022-08-18T15:29:41.455Z,33.01
2022-08-18T15:34:47.115Z,33.24
2022-08-18T15:39:51.893Z,33.10
2022-08-18T15:45:16.772Z,33.16
2022-08-18T15:50:21.972Z,33.10
2022-08-18T15:55:28.089Z,33.29
2022-08-18T16:00:27.521Z,32.85
2022-08-18T16:05:32.774Z,32.46
2022-08-18T16:11:03.427Z,32.71
2022-08-18T16:16:13.261Z,32.80
2022-08-18T16:21:12.704Z,32.67
2022-08-18T16:26:37.619Z,31.94
2022-08-18T16:31:41.392Z,32.33
2022-08-18T16:36:41.138Z,32.12
2022-08-18T16:42:17.178Z,31.89
2022-08-18T16:48:02.621Z,31.97
2022-08-18T16:53:19.885Z,31.76
2022-08-18T16:58:40.303Z,31.58
2022-08-18T17:10:17.669Z,31.51
2022-08-18T17:15:22.086Z,31.70
2022-08-18T17:20:25.545Z,31.63
2022-08-18T17:25:33.308Z,31.82
2022-08-18T17:36:36.513Z,31.65
2022-08-18T17:41:59.965Z,31.42
2022-08-18T17:52:40.473Z,31.22
2022-08-18T17:58:09.271Z,31.12
2022-08-18T18:03:13.442Z,30.99
2022-08-18T18:08:11.415Z,30.34
2022-08-18T18:13:28.455Z,30.36
2022-08-18T18:18:43.720Z,30.44
2022-08-18T18:23:45.631Z,30.70
2022-08-18T18:28:45.526Z,30.45
2022-08-18T18:33:48.122Z,30.49
2022-08-18T18:39:16.125Z,30.21
2022-08-18T18:44:21.294Z,29.71
2022-08-18T18:49:28.287Z,30.34
2022-08-18T18:54:49.614Z,30.09
2022-08-18T19:00:03.861Z,30.18
2022-08-18T19:05:10.662Z,30.25
2022-08-18T19:10:17.685Z,29.97
2022-08-18T19:15:15.967Z,30.11
2022-08-18T19:20:20.164Z,29.57
2022-08-18T19:25:25.113Z,30.04
2022-08-18T19:30:50.482Z,30.15
2022-08-18T19:35:58.985Z,30.06
2022-08-18T19:41:04.933Z,30.03
2022-08-18T19:46:23.051Z,30.61
2022-08-18T19:51:29.002Z,30.63
2022-08-18T19:56:52.252Z,30.42
2022-08-18T20:02:01.652Z,29.72
2022-08-18T20:07:37.612Z,30.05
2022-08-18T20:12:53.157Z,29.63
2022-08-18T20:18:22.530Z,29.43
2022-08-18T20:23:56.637Z,29.09
2022-08-18T20:29:34.120Z,28.50
2022-08-18T20:34:34.083Z,28.44
2022-08-18T20:39:41.826Z,28.14
2022-08-18T20:44:57.176Z,28.37
2022-08-18T20:50:20.965Z,28.71
2022-08-18T20:55:33.987Z,28.57
2022-08-18T21:00:36.439Z,28.77
2022-08-18T21:05:44.374Z,28.68
2022-08-18T21:10:50.175Z,28.57
2022-08-18T21:15:48.815Z,28.59
2022-08-18T21:20:47.490Z,28.72
2022-08-18T21:25:52.171Z,28.63
2022-08-18T21:31:43.009Z,28.86
2022-08-18T21:36:31.760Z,29.02
2022-08-18T21:41:31.981Z,29.13
2022-08-18T21:46:36.494Z,29.12
2022-08-18T21:51:44.420Z,28.91
2022-08-18T21:57:19.675Z,29.04
2022-08-18T22:02:23.446Z,28.86
2022-08-18T22:07:34.704Z,28.89
2022-08-18T22:12:52.746Z,29.02
2022-08-18T22:17:54.447Z,29.06
2022-08-18T22:23:09.459Z,29.48
2022-08-18T22:28:07.577Z,29.42
2022-08-18T22:33:05.272Z,29.09
2022-08-18T22:38:02.329Z,29.45
2022-08-18T22:42:59.358Z,28.83
2022-08-18T22:47:57.696Z,29.16
2022-08-18T22:52:56.761Z,28.95
2022-08-18T22:57:56.306Z,28.94
2022-08-18T23:02:54.814Z,28.78
2022-08-18T23:07:53.100Z,29.09
2022-08-18T23:12:50.109Z,29.06
2022-08-18T23:17:48.474Z,28.53
2022-08-18T23:22:46.785Z,29.00
2022-08-18T23:27:44.803Z,28.37
2022-08-18T23:32:43.196Z,28.73
2022-08-18T23:37:41.082Z,28.41
2022-08-18T23:42:41.328Z,28.74
2022-08-18T23:47:41.564Z,28.71
2022-08-18T23:52:39.706Z,28.32
2022-08-18T23:57:48.926Z,28.15
